Aérodrome :
LOGIN :

S'inscrire | Disclaimer

   EN    FR    IT 

 










Légende :    VFR   VFR Marginal   IFR   IFR Intensif   IFR Très Intensif
Visi : 
Plafond : 
>= 8 km
>= 3000ft
5 à 8 km
1000 à 3000 ft
1500m à 5 km
500 à 1000 ft
800 à 1500m
200 à 500 ft
< 800m
< 200 ft
Symboles :   Orages  Brouillard  Fortes neiges  Fortes précipitations  Vent > 20 kt
SIGMETs :   Divers  Orages  Givrage  Turbulence  Onde Orograph.  Cendres Volcan.







- Altitude de l'aérodrome : 1325 ft
- Code IATA : EBU
- Voir les cartes d'approche


LFMH - St-Etienne Boutheon

DERNIER METAR :
  • 270130Z AUTO 16006KT CAVOK 17/13 Q1011

METARs EXPIRÉS :
  • 270100Z AUTO 11003KT 040V140 CAVOK 16/13 Q1011
  • 270030Z AUTO 16005KT CAVOK 17/13 Q1011
  • 270000Z AUTO 12003KT 080V170 CAVOK 18/13 Q1011
  • 262330Z AUTO 16004KT 140V200 CAVOK 18/12 Q1011
  • 262300Z AUTO 16003KT CAVOK 17/13 Q1011

TAF TAF LFMH
Valide du 26 à 15h jusqu'au 27 à 15h UTC


261400Z 2615/2715 16006KT 9999 FEW050CB BKN100
PROB40
TEMPO 2615/2619 22025G40KT 2500 TSRAGR BKN022 BKN045CB OVC070
PROB40
TEMPO 2619/2622 22020G30KT 5000 -TSRA BKN055CB BKN150
BECMG 2622/2624 SCT055 BKN120
BECMG 2706/2709 SCT045 BKN200
BECMG 2709/2712 SCT062TCU BKN200
TEMPO 2713/2715 5000 SHRA SCT043CB BKN060
ATIS : +33 4 77 36 17 51
Pas de NOTAMs connus pour ce terrain.



MET'MAP, la Météo Aéronautique d'un coup d'oeil ! - Copyright ORBIFLY Décembre 2007 - Disclaimer

ORBIFLY MET'MAP TEAM :

Programmation & Développement : Alexandra Zaïnal
Conception & Développement : Baudouin d'Aumeries
Co-Programmation & Développement : Marc-Olivier Méhu
Soutien technique & logistique : Manuel Goepfert

Contact : metmap@orbifly.com




SOURCES & CREDITS :

   NOAA